Time;durP1;ratioP1;P1;durP2;ratioP2;P2;SDS_P1;SDS_P2;PMS_P1;PMS_P2;Temp;Humidity;BMP_temperature;BMP_pressure;BME280_temperature;BME280_humidity;BME280_pressure;Samples;Min_cycle;Max_cycle;Signal;HPM_P1;HPM_P2
2022/12/02 00:00:55;;;;;;;56.63;25.57;;;6.60;99.90;;;;;;5040130;28;20232;-57
2022/12/02 00:03:24;;;;;;;56.17;25.83;;;6.60;99.90;;;;;;5040832;28;20301;-57
2022/12/02 00:05:56;;;;;;;55.07;25.20;;;6.70;99.90;;;;;;5039765;28;20205;-56
2022/12/02 00:08:27;;;;;;;52.33;25.37;;;6.60;99.90;;;;;;5040587;28;20205;-56
2022/12/02 00:10:56;;;;;;;54.93;26.13;;;6.80;99.90;;;;;;5041262;28;20315;-56
2022/12/02 00:13:28;;;;;;;54.10;25.33;;;6.60;99.90;;;;;;5040223;28;20576;-56
2022/12/02 00:16:02;;;;;;;56.40;24.90;;;6.70;99.90;;;;;;5036008;28;20204;-57
2022/12/02 00:18:30;;;;;;;57.43;25.17;;;6.60;99.90;;;;;;5041323;28;20214;-56
2022/12/02 00:20:57;;;;;;;55.43;25.03;;;6.60;99.90;;;;;;5039501;28;20788;-56
2022/12/02 00:23:23;;;;;;;54.63;25.30;;;6.60;99.90;;;;;;5042807;28;20319;-57
2022/12/02 00:25:52;;;;;;;55.47;26.20;;;6.60;99.90;;;;;;5039628;28;20587;-56
2022/12/02 00:28:19;;;;;;;57.43;25.90;;;6.70;99.90;;;;;;5040201;28;20200;-57
2022/12/02 00:30:46;;;;;;;57.30;26.77;;;6.70;99.90;;;;;;5039008;28;20216;-56
2022/12/02 00:33:14;;;;;;;56.30;26.00;;;6.60;99.90;;;;;;5037703;28;20199;-56
2022/12/02 00:35:41;;;;;;;57.07;27.50;;;6.70;99.90;;;;;;5037246;28;20207;-56
2022/12/02 00:38:08;;;;;;;61.47;27.07;;;6.50;99.90;;;;;;5037316;28;20700;-56
2022/12/02 00:40:34;;;;;;;61.13;28.00;;;6.60;99.90;;;;;;5034802;28;20209;-57
2022/12/02 00:48:33;;;;;;;61.33;25.93;;;6.60;99.90;;;;;;5040034;28;20213;-56
2022/12/02 00:51:01;;;;;;;61.07;26.33;;;6.60;99.90;;;;;;5039330;28;20677;-56
2022/12/02 00:53:28;;;;;;;58.47;25.90;;;6.60;99.90;;;;;;5039985;28;20217;-57
2022/12/02 00:55:54;;;;;;;55.40;25.27;;;6.60;99.90;;;;;;5039778;28;20216;-56
2022/12/02 00:58:21;;;;;;;54.33;25.37;;;6.60;99.90;;;;;;5035350;28;20224;-57
2022/12/02 01:00:48;;;;;;;60.40;26.53;;;6.60;99.90;;;;;;5041948;28;20673;-57
2022/12/02 01:03:15;;;;;;;56.20;27.10;;;6.40;99.90;;;;;;5039821;28;20738;-56
2022/12/02 01:05:42;;;;;;;66.83;29.60;;;6.30;99.90;;;;;;5037600;28;20198;-56
2022/12/02 01:08:08;;;;;;;60.57;26.97;;;6.20;99.90;;;;;;5040066;28;20210;-56
2022/12/02 01:10:35;;;;;;;67.50;28.37;;;6.10;99.90;;;;;;5039018;28;20243;-55
2022/12/02 01:13:02;;;;;;;64.93;27.40;;;6.00;99.90;;;;;;5039756;28;20208;-55
2022/12/02 01:15:29;;;;;;;69.33;28.10;;;6.10;99.90;;;;;;5039466;28;20605;-56
2022/12/02 01:17:56;;;;;;;73.87;30.07;;;6.00;99.90;;;;;;5038485;28;20299;-55
2022/12/02 01:20:22;;;;;;;72.83;30.47;;;6.00;99.90;;;;;;5037057;28;20201;-56
2022/12/02 01:22:49;;;;;;;69.77;27.57;;;6.00;99.90;;;;;;5038021;28;20328;-57
2022/12/02 01:25:16;;;;;;;80.07;31.13;;;6.00;99.90;;;;;;5032877;28;20287;-57
2022/12/02 01:27:43;;;;;;;84.77;31.97;;;6.00;99.90;;;;;;5036601;28;20224;-57
2022/12/02 01:30:10;;;;;;;83.23;31.77;;;5.90;99.90;;;;;;5039010;28;20206;-55
2022/12/02 01:32:37;;;;;;;81.77;30.13;;;5.90;99.90;;;;;;5035820;28;20294;-56
2022/12/02 01:35:04;;;;;;;78.33;31.70;;;5.90;99.90;;;;;;5037570;28;20216;-56
2022/12/02 01:37:31;;;;;;;81.83;31.50;;;5.90;99.90;;;;;;5038765;28;20303;-56
2022/12/02 01:39:58;;;;;;;77.20;29.53;;;5.90;99.90;;;;;;5039050;28;20302;-56
2022/12/02 01:42:25;;;;;;;70.77;29.53;;;5.90;99.90;;;;;;5036386;28;20304;-56
2022/12/02 01:44:51;;;;;;;79.93;30.63;;;5.80;99.90;;;;;;5035780;28;20199;-56
2022/12/02 01:47:19;;;;;;;80.27;30.17;;;5.70;99.90;;;;;;5035580;28;20205;-56
2022/12/02 01:49:45;;;;;;;74.67;29.40;;;5.60;99.90;;;;;;5035817;28;20231;-56
2022/12/02 01:52:12;;;;;;;78.57;29.33;;;5.50;99.90;;;;;;5039354;28;20262;-57
2022/12/02 01:54:39;;;;;;;79.80;28.57;;;5.50;99.90;;;;;;5038052;28;20723;-55
2022/12/02 01:57:11;;;;;;;76.70;30.27;;;5.50;99.90;;;;;;5037923;28;20218;-57
2022/12/02 01:59:40;;;;;;;68.83;26.63;;;5.60;99.90;;;;;;5039517;28;20589;-56
2022/12/02 02:02:30;;;;;;;81.73;28.63;;;5.40;99.90;;;;;;5039965;28;20219;-56
2022/12/02 02:05:09;;;;;;;80.70;28.23;;;5.50;99.90;;;;;;5037504;28;20313;-56
2022/12/02 02:07:38;;;;;;;70.63;28.70;;;5.50;99.90;;;;;;5036885;28;20239;-56
2022/12/02 02:10:06;;;;;;;77.10;29.33;;;5.50;99.90;;;;;;5039037;28;20326;-55
2022/12/02 02:12:34;;;;;;;72.70;27.60;;;5.60;99.90;;;;;;5035951;28;20237;-57
2022/12/02 02:15:07;;;;;;;72.60;27.43;;;5.50;99.90;;;;;;5039252;28;20216;-57
2022/12/02 02:17:34;;;;;;;70.13;27.97;;;5.60;99.90;;;;;;5037862;28;20207;-55
2022/12/02 02:20:04;;;;;;;66.97;26.40;;;5.60;99.90;;;;;;5037801;28;20213;-56
2022/12/02 02:22:44;;;;;;;68.37;26.30;;;5.60;99.90;;;;;;5039767;28;20696;-56
2022/12/02 02:25:14;;;;;;;63.93;24.90;;;5.50;99.90;;;;;;5039472;28;20212;-56
2022/12/02 02:27:52;;;;;;;69.60;25.53;;;5.60;99.90;;;;;;5039389;28;20212;-56
2022/12/02 02:30:20;;;;;;;57.27;25.73;;;5.60;99.90;;;;;;5038604;28;20214;-56
2022/12/02 02:32:48;;;;;;;61.93;24.63;;;5.50;99.90;;;;;;5040100;28;20660;-56
2022/12/02 02:35:16;;;;;;;61.50;24.40;;;5.50;99.90;;;;;;5037210;28;20629;-56
2022/12/02 02:37:43;;;;;;;51.40;22.37;;;5.50;99.90;;;;;;5038690;28;20203;-57
2022/12/02 02:40:14;;;;;;;51.90;23.30;;;5.40;99.90;;;;;;5036533;28;20234;-56
2022/12/02 02:42:48;;;;;;;47.80;22.80;;;5.50;99.90;;;;;;5038177;28;20510;-56
2022/12/02 02:45:16;;;;;;;49.53;21.90;;;5.40;99.90;;;;;;5038189;28;20203;-56
2022/12/02 02:47:44;;;;;;;43.80;21.80;;;5.40;99.90;;;;;;5038592;28;20205;-56
2022/12/02 02:50:11;;;;;;;44.03;20.17;;;5.40;99.90;;;;;;5034845;28;20593;-56
2022/12/02 02:52:37;;;;;;;46.60;20.77;;;5.30;99.90;;;;;;5034601;28;20209;-56
2022/12/02 02:55:06;;;;;;;46.40;20.97;;;5.40;99.90;;;;;;5034793;28;20725;-56
2022/12/02 02:57:35;;;;;;;47.40;21.97;;;5.40;99.90;;;;;;5051036;28;20581;-56
2022/12/02 03:00:03;;;;;;;45.27;21.27;;;5.30;99.90;;;;;;5037304;28;20199;-56
2022/12/02 03:02:30;;;;;;;44.73;21.77;;;5.30;99.90;;;;;;5040211;28;20219;-56
2022/12/02 03:04:57;;;;;;;45.77;20.27;;;5.20;99.90;;;;;;5036897;28;20222;-56
2022/12/02 03:07:24;;;;;;;43.90;20.70;;;5.20;99.90;;;;;;5038746;28;20228;-60
2022/12/02 03:09:51;;;;;;;50.73;22.70;;;5.10;99.90;;;;;;5040734;28;20293;-57
2022/12/02 03:12:19;;;;;;;51.40;21.87;;;5.20;99.90;;;;;;5043082;28;20680;-57
2022/12/02 03:14:46;;;;;;;44.63;20.07;;;5.20;99.90;;;;;;5041430;28;20225;-56
2022/12/02 03:17:13;;;;;;;53.00;23.63;;;5.20;99.90;;;;;;5041358;28;20211;-56
2022/12/02 03:19:41;;;;;;;45.73;19.77;;;5.30;99.90;;;;;;5039719;28;20300;-56
2022/12/02 03:22:09;;;;;;;47.53;22.33;;;5.20;99.90;;;;;;5043106;28;20224;-55
2022/12/02 03:24:37;;;;;;;43.23;19.90;;;5.30;99.90;;;;;;5041186;28;20239;-56
2022/12/02 03:27:05;;;;;;;46.77;22.37;;;5.20;99.90;;;;;;5043046;28;20241;-57
2022/12/02 03:29:33;;;;;;;44.30;20.37;;;5.20;99.90;;;;;;5041596;28;20297;-56
2022/12/02 03:32:00;;;;;;;41.57;19.43;;;5.20;99.90;;;;;;5057461;28;20287;-56
2022/12/02 03:34:28;;;;;;;50.77;22.63;;;5.20;99.90;;;;;;5039723;28;20210;-56
2022/12/02 03:36:56;;;;;;;48.20;22.67;;;5.10;99.90;;;;;;5040008;28;20208;-56
2022/12/02 03:39:23;;;;;;;46.13;22.27;;;5.20;99.90;;;;;;5041201;28;20216;-55
2022/12/02 03:41:49;;;;;;;50.10;21.63;;;5.20;99.90;;;;;;5041128;28;20586;-56
2022/12/02 03:44:16;;;;;;;43.53;20.47;;;5.30;99.90;;;;;;5037487;28;20652;-57
2022/12/02 03:46:43;;;;;;;49.20;21.07;;;5.30;99.90;;;;;;5040607;28;20201;-56
2022/12/02 03:49:11;;;;;;;45.07;20.10;;;5.20;99.90;;;;;;5037889;28;20207;-56
2022/12/02 03:51:38;;;;;;;44.80;19.33;;;5.20;99.90;;;;;;5052691;28;20291;-57
2022/12/02 03:54:05;;;;;;;46.77;20.20;;;5.20;99.90;;;;;;5036606;28;20205;-56
2022/12/02 03:56:39;;;;;;;54.13;20.77;;;5.20;99.90;;;;;;5041501;28;20214;-56
2022/12/02 03:59:07;;;;;;;47.50;20.73;;;5.20;99.90;;;;;;5039092;28;22043;-56
2022/12/02 04:01:34;;;;;;;44.70;20.53;;;5.10;99.90;;;;;;5039357;28;20714;-56
2022/12/02 04:04:02;;;;;;;46.10;20.43;;;5.10;99.90;;;;;;5039806;28;20196;-56
2022/12/02 04:06:28;;;;;;;42.60;21.07;;;5.20;99.90;;;;;;5039139;28;20240;-56
2022/12/02 04:08:55;;;;;;;47.83;20.43;;;5.20;99.90;;;;;;5040334;28;20667;-55
2022/12/02 04:11:22;;;;;;;44.83;20.80;;;5.20;99.90;;;;;;5040546;28;20235;-56
2022/12/02 04:13:49;;;;;;;48.57;19.93;;;5.20;99.90;;;;;;5040578;28;20208;-56
2022/12/02 04:16:16;;;;;;;49.67;21.40;;;5.20;99.90;;;;;;5040402;28;20594;-56
2022/12/02 04:18:42;;;;;;;44.13;20.90;;;5.10;99.90;;;;;;5041807;28;20221;-57
2022/12/02 04:21:09;;;;;;;50.43;20.23;;;5.20;99.90;;;;;;5038500;28;20205;-56
2022/12/02 04:23:36;;;;;;;44.37;19.43;;;5.00;99.90;;;;;;5038869;28;20249;-56
2022/12/02 04:26:03;;;;;;;50.40;23.20;;;5.00;99.90;;;;;;5036350;28;20213;-56
2022/12/02 04:28:30;;;;;;;46.20;21.20;;;5.00;99.90;;;;;;5040390;28;20214;-55
2022/12/02 04:30:56;;;;;;;44.50;20.60;;;5.00;99.90;;;;;;5041160;28;20200;-56
2022/12/02 04:33:23;;;;;;;45.97;20.30;;;5.10;99.90;;;;;;5041134;28;20219;-56
2022/12/02 04:35:50;;;;;;;41.67;19.13;;;5.00;99.90;;;;;;5038866;28;20573;-56
2022/12/02 04:38:17;;;;;;;45.73;20.67;;;5.00;99.90;;;;;;5040584;28;20286;-56
2022/12/02 04:40:44;;;;;;;42.00;19.23;;;5.10;99.90;;;;;;5039464;28;20294;-57
2022/12/02 04:43:11;;;;;;;45.33;19.20;;;5.10;99.90;;;;;;5039947;28;20313;-56
2022/12/02 04:45:38;;;;;;;41.07;19.57;;;5.00;99.90;;;;;;5055701;28;20203;-56
2022/12/02 04:48:05;;;;;;;47.30;21.27;;;4.90;99.90;;;;;;5038540;28;20266;-56
2022/12/02 04:50:31;;;;;;;45.33;20.00;;;4.90;99.90;;;;;;5037485;28;20294;-56
2022/12/02 04:52:58;;;;;;;42.20;18.37;;;5.10;99.90;;;;;;5039507;28;20291;-56
2022/12/02 04:55:25;;;;;;;47.53;20.87;;;4.80;99.90;;;;;;5022227;28;20681;-56
2022/12/02 04:57:52;;;;;;;39.67;17.07;;;4.70;99.90;;;;;;5038747;28;20204;-56
2022/12/02 05:00:19;;;;;;;39.30;16.53;;;4.80;99.90;;;;;;5039315;28;20212;-60
2022/12/02 05:02:46;;;;;;;35.03;15.27;;;4.80;99.90;;;;;;5039567;28;20241;-57
2022/12/02 05:05:12;;;;;;;35.97;16.13;;;4.70;99.90;;;;;;5035124;28;20241;-56
2022/12/02 05:07:39;;;;;;;34.70;15.03;;;4.80;99.90;;;;;;5036687;28;20637;-56
2022/12/02 05:10:07;;;;;;;33.77;14.73;;;4.80;99.90;;;;;;5053020;28;20220;-57
2022/12/02 05:12:34;;;;;;;32.17;14.50;;;4.80;99.90;;;;;;5021419;28;20206;-56
2022/12/02 05:15:00;;;;;;;33.83;14.73;;;4.70;99.90;;;;;;5039057;28;20223;-55
2022/12/02 05:17:29;;;;;;;28.83;13.83;;;4.70;99.90;;;;;;5038544;28;20203;-59
2022/12/02 05:19:56;;;;;;;28.37;13.33;;;4.70;99.90;;;;;;5033737;28;20652;-55
2022/12/02 05:22:23;;;;;;;26.30;13.40;;;4.70;99.90;;;;;;5028668;28;20241;-55
2022/12/02 05:24:50;;;;;;;34.60;14.93;;;4.60;99.90;;;;;;5036333;28;20227;-56
2022/12/02 05:27:17;;;;;;;30.33;12.80;;;4.70;99.90;;;;;;5039265;28;20712;-56
2022/12/02 05:29:44;;;;;;;29.90;12.50;;;4.70;99.90;;;;;;5034490;28;20207;-55
2022/12/02 05:32:11;;;;;;;32.00;13.30;;;4.60;99.90;;;;;;5032186;28;20208;-57
2022/12/02 05:34:38;;;;;;;30.73;13.47;;;4.60;99.90;;;;;;5030330;28;20211;-59
2022/12/02 05:37:04;;;;;;;28.33;12.93;;;4.70;99.90;;;;;;5031196;28;20212;-56
2022/12/02 05:39:31;;;;;;;27.77;12.60;;;4.70;99.90;;;;;;5032621;28;20585;-57
2022/12/02 05:42:01;;;;;;;32.87;14.43;;;4.70;99.90;;;;;;4678772;28;10001353;-55
2022/12/02 05:44:29;;;;;;;27.67;13.47;;;4.90;99.90;;;;;;5022173;28;20291;-56
2022/12/02 05:47:14;;;;;;;29.50;13.33;;;4.90;99.90;;;;;;5031042;28;20655;-55
2022/12/02 05:49:42;;;;;;;27.93;12.83;;;5.00;99.90;;;;;;5027707;28;20811;-55
2022/12/02 05:52:24;;;;;;;32.43;14.37;;;5.00;99.90;;;;;;5031665;28;20216;-57
2022/12/02 05:54:53;;;;;;;32.93;15.33;;;4.90;99.90;;;;;;5035095;28;20298;-55
2022/12/02 05:57:23;;;;;;;34.37;14.73;;;4.90;99.90;;;;;;5026772;28;20500;-55
2022/12/02 06:00:09;;;;;;;32.67;16.07;;;4.90;99.90;;;;;;4679491;28;9999975;-56
2022/12/02 06:02:49;;;;;;;35.67;15.43;;;4.90;99.90;;;;;;5029977;28;20219;-56
2022/12/02 06:05:39;;;;;;;30.73;14.60;;;4.90;99.90;;;;;;5037205;28;20237;-57
2022/12/02 06:08:18;;;;;;;36.07;14.13;;;4.80;99.90;;;;;;5039526;28;20265;-56
2022/12/02 06:10:52;;;;;;;35.53;15.07;;;4.80;99.90;;;;;;5037679;28;20256;-56
2022/12/02 06:13:22;;;;;;;36.27;15.23;;;4.80;99.90;;;;;;5037350;28;20230;-57
2022/12/02 06:15:50;;;;;;;31.37;14.40;;;4.70;99.90;;;;;;5036803;28;20205;-56
2022/12/02 06:18:20;;;;;;;34.47;14.80;;;4.80;99.90;;;;;;5038801;28;20203;-56
2022/12/02 06:20:52;;;;;;;31.90;14.50;;;4.80;99.90;;;;;;5036295;28;20227;-56
2022/12/02 06:23:20;;;;;;;35.20;13.77;;;4.80;99.90;;;;;;5041425;28;20589;-56
2022/12/02 06:25:49;;;;;;;36.50;14.77;;;4.80;99.90;;;;;;5038103;28;20568;-54
2022/12/02 06:28:22;;;;;;;36.43;13.07;;;4.70;99.90;;;;;;5040877;28;20289;-53
2022/12/02 06:30:49;;;;;;;32.90;13.07;;;4.80;99.90;;;;;;5036658;28;20697;-54
2022/12/02 06:33:33;;;;;;;27.57;12.13;;;4.70;99.90;;;;;;5040298;28;20257;-54
2022/12/02 06:36:03;;;;;;;28.30;12.10;;;4.70;99.90;;;;;;5037488;28;20217;-54
2022/12/02 06:38:33;;;;;;;27.73;11.47;;;4.60;99.90;;;;;;5036545;28;20222;-56
2022/12/02 06:41:20;;;;;;;25.37;11.00;;;4.60;99.90;;;;;;5037815;28;20248;-54
2022/12/02 06:46:34;;;;;;;26.97;10.40;;;4.70;99.90;;;;;;5043203;28;20220;-53
2022/12/02 06:49:20;;;;;;;26.87;12.40;;;4.50;99.90;;;;;;5042795;28;20238;-54
2022/12/02 06:52:00;;;;;;;21.27;9.93;;;4.60;99.90;;;;;;5042848;28;20288;-53
2022/12/02 06:54:31;;;;;;;25.03;11.87;;;4.60;99.90;;;;;;5041626;28;20246;-52
2022/12/02 06:57:00;;;;;;;24.10;11.03;;;4.70;99.90;;;;;;5042421;28;20204;-54
2022/12/02 06:59:27;;;;;;;23.73;10.47;;;4.50;99.90;;;;;;5040984;28;20260;-55
2022/12/02 07:01:59;;;;;;;25.17;10.90;;;4.50;99.90;;;;;;5034407;28;20202;-52
2022/12/02 07:04:34;;;;;;;26.07;10.67;;;4.50;99.90;;;;;;5029936;28;20204;-52
2022/12/02 07:07:21;;;;;;;22.60;10.47;;;4.50;99.90;;;;;;5039795;28;20450;-53
2022/12/02 07:09:54;;;;;;;25.23;10.73;;;4.50;99.90;;;;;;5036814;28;20228;-51
2022/12/02 07:12:28;;;;;;;22.33;11.17;;;4.50;99.90;;;;;;5041248;28;20892;-52
2022/12/02 07:14:58;;;;;;;23.97;10.43;;;4.50;99.90;;;;;;5040351;28;21052;-52
2022/12/02 07:17:34;;;;;;;22.77;10.80;;;4.50;99.90;;;;;;5040848;28;20313;-52
2022/12/02 07:20:08;;;;;;;22.57;10.27;;;4.70;99.90;;;;;;5054382;28;20637;-52
2022/12/02 07:22:43;;;;;;;19.53;10.23;;;4.60;99.90;;;;;;5040629;28;20268;-53
2022/12/02 07:25:58;;;;;;;25.13;10.77;;;4.60;99.90;;;;;;5040481;28;20239;-52
2022/12/02 07:28:35;;;;;;;26.50;11.03;;;4.70;99.90;;;;;;4987583;28;20219;-52
2022/12/02 07:31:23;;;;;;;29.03;12.73;;;4.70;99.90;;;;;;4986894;28;20223;-53
2022/12/02 07:33:50;;;;;;;22.70;11.10;;;4.60;99.90;;;;;;4987699;28;20675;-52
2022/12/02 07:36:18;;;;;;;25.00;12.07;;;4.60;99.90;;;;;;4985483;28;20212;-54
2022/12/02 07:38:45;;;;;;;23.53;11.03;;;4.60;99.90;;;;;;4988387;28;20208;-52
2022/12/02 07:41:32;;;;;;;26.23;11.10;;;4.70;99.90;;;;;;4987584;28;20722;-53
2022/12/02 07:44:04;;;;;;;23.40;10.60;;;4.70;99.90;;;;;;4987591;28;20243;-52
2022/12/02 07:46:31;;;;;;;24.40;11.40;;;4.50;99.90;;;;;;4986677;28;20294;-53
2022/12/02 07:48:58;;;;;;;28.27;12.07;;;4.60;99.90;;;;;;4987913;28;20263;-52
2022/12/02 07:51:25;;;;;;;25.57;11.53;;;4.60;99.90;;;;;;4986065;28;20296;-53
2022/12/02 07:53:52;;;;;;;23.90;11.50;;;4.50;99.90;;;;;;4987348;28;20213;-54
2022/12/02 07:56:18;;;;;;;25.93;12.60;;;4.50;99.90;;;;;;4986779;28;20222;-52
2022/12/02 07:58:45;;;;;;;27.50;12.50;;;4.30;99.90;;;;;;4987691;28;20218;-52
2022/12/02 08:01:32;;;;;;;25.53;11.57;;;4.40;99.90;;;;;;4992251;28;20203;-52
2022/12/02 08:03:59;;;;;;;24.07;11.70;;;4.40;99.90;;;;;;5038775;28;20539;-53
2022/12/02 08:06:26;;;;;;;25.20;11.77;;;4.30;99.90;;;;;;5037623;28;20364;-52
2022/12/02 08:08:53;;;;;;;23.30;10.83;;;4.30;99.90;;;;;;5038321;28;20215;-52
2022/12/02 08:11:19;;;;;;;29.27;12.07;;;4.30;99.90;;;;;;5039965;28;20255;-53
2022/12/02 08:13:46;;;;;;;25.27;12.47;;;4.30;99.90;;;;;;5038841;28;20303;-51
2022/12/02 08:16:13;;;;;;;24.03;12.30;;;4.30;99.90;;;;;;5037436;28;20213;-52
2022/12/02 08:18:40;;;;;;;22.37;10.80;;;4.40;99.90;;;;;;5037276;28;20802;-52
2022/12/02 08:21:06;;;;;;;21.47;11.70;;;4.40;99.90;;;;;;5036227;28;20217;-53
2022/12/02 08:23:35;;;;;;;22.53;12.63;;;4.40;99.90;;;;;;5038304;28;20265;-52
2022/12/02 08:26:02;;;;;;;23.53;11.87;;;4.30;99.90;;;;;;5039044;28;20580;-54
2022/12/02 08:28:29;;;;;;;27.23;12.60;;;4.40;99.90;;;;;;5038192;28;20200;-53
2022/12/02 08:30:56;;;;;;;26.57;11.70;;;4.20;99.90;;;;;;5038187;28;20671;-56
2022/12/02 08:33:23;;;;;;;26.77;12.63;;;4.30;99.90;;;;;;5038409;28;20213;-54
2022/12/02 08:35:50;;;;;;;28.40;12.73;;;4.20;99.90;;;;;;5037047;28;20207;-64
2022/12/02 08:38:16;;;;;;;22.30;11.77;;;4.40;99.90;;;;;;5037150;28;20335;-53
2022/12/02 08:40:43;;;;;;;28.10;13.00;;;4.50;99.90;;;;;;5021749;28;20200;-53
2022/12/02 08:43:10;;;;;;;26.00;11.57;;;4.50;99.90;;;;;;5037412;28;20263;-52
2022/12/02 08:45:37;;;;;;;23.73;11.30;;;4.40;99.90;;;;;;5034585;28;20210;-52
2022/12/02 08:48:04;;;;;;;26.80;11.30;;;4.30;99.90;;;;;;5037213;28;20204;-51
2022/12/02 08:50:31;;;;;;;24.03;11.43;;;4.40;99.90;;;;;;5036820;28;20299;-54
2022/12/02 08:52:58;;;;;;;28.03;13.10;;;4.30;99.90;;;;;;5039047;28;20204;-53
2022/12/02 08:55:25;;;;;;;26.93;12.60;;;4.30;99.90;;;;;;5037688;28;20208;-56
2022/12/02 08:57:52;;;;;;;25.83;12.10;;;4.30;99.90;;;;;;5038483;28;20208;-51
2022/12/02 09:00:19;;;;;;;26.43;12.67;;;4.40;99.90;;;;;;5036327;28;20236;-55
2022/12/02 09:02:46;;;;;;;24.13;11.70;;;4.20;99.90;;;;;;5037444;28;20258;-52
2022/12/02 09:05:13;;;;;;;30.17;12.63;;;4.30;99.90;;;;;;5035586;28;20211;-51
2022/12/02 09:07:40;;;;;;;27.37;11.33;;;4.30;99.90;;;;;;5037710;28;20219;-53
2022/12/02 09:10:08;;;;;;;22.17;10.90;;;4.20;99.90;;;;;;5037926;28;20316;-53
2022/12/02 09:12:35;;;;;;;21.33;10.93;;;4.10;99.90;;;;;;5038221;28;20380;-51
2022/12/02 09:15:02;;;;;;;23.17;11.03;;;4.10;99.90;;;;;;5038356;28;20203;-51
2022/12/02 09:17:29;;;;;;;25.53;11.67;;;4.00;99.90;;;;;;5036324;28;20196;-52
2022/12/02 09:19:56;;;;;;;22.67;9.70;;;3.90;99.90;;;;;;5035266;28;20200;-51
2022/12/02 09:22:23;;;;;;;22.13;9.80;;;3.90;99.90;;;;;;5038089;28;20215;-54
2022/12/02 09:24:50;;;;;;;23.93;11.57;;;3.80;99.90;;;;;;5038379;28;20323;-53
2022/12/02 09:27:17;;;;;;;29.43;11.37;;;3.80;99.90;;;;;;5037533;28;20642;-57
2022/12/02 09:29:44;;;;;;;23.37;10.90;;;3.90;99.90;;;;;;5036501;28;20291;-52
2022/12/02 09:32:10;;;;;;;25.00;12.27;;;4.00;99.90;;;;;;5037816;28;20204;-59
2022/12/02 09:34:37;;;;;;;24.37;11.33;;;3.90;99.90;;;;;;5035313;28;20240;-51
2022/12/02 09:37:04;;;;;;;25.70;10.73;;;4.00;99.90;;;;;;5038140;28;20792;-53
2022/12/02 09:39:31;;;;;;;26.33;10.93;;;4.00;99.90;;;;;;5037287;28;20212;-52
2022/12/02 09:42:06;;;;;;;21.93;11.57;;;3.90;99.90;;;;;;5037347;28;20215;-52
2022/12/02 09:44:33;;;;;;;18.97;10.60;;;4.00;99.90;;;;;;5036573;28;20230;-51
2022/12/02 09:47:00;;;;;;;22.33;10.27;;;3.90;99.90;;;;;;5036917;28;20663;-54
2022/12/02 09:49:26;;;;;;;28.27;11.20;;;3.80;99.90;;;;;;5036711;28;20216;-53
2022/12/02 09:51:58;;;;;;;24.87;10.70;;;3.90;99.90;;;;;;5037246;28;20289;-52
2022/12/02 09:54:25;;;;;;;23.03;10.30;;;3.70;99.90;;;;;;5037517;28;20223;-52
2022/12/02 09:56:52;;;;;;;23.13;10.80;;;3.80;99.90;;;;;;5037656;28;20219;-52
2022/12/02 09:59:19;;;;;;;24.40;11.70;;;3.80;99.90;;;;;;5037737;28;20200;-51
2022/12/02 10:01:47;;;;;;;29.47;12.70;;;3.80;99.90;;;;;;5036554;28;20287;-51
2022/12/02 10:04:21;;;;;;;26.13;12.00;;;3.80;99.90;;;;;;5036566;28;20223;-52
2022/12/02 10:06:48;;;;;;;29.83;12.63;;;3.80;99.90;;;;;;5037532;28;20287;-52
2022/12/02 10:09:27;;;;;;;28.67;12.57;;;3.90;99.90;;;;;;5036898;28;20292;-52
2022/12/02 10:11:54;;;;;;;31.23;13.23;;;3.90;99.90;;;;;;5036897;28;20757;-53
2022/12/02 10:14:21;;;;;;;39.50;15.03;;;3.80;99.90;;;;;;5038320;28;20211;-54
2022/12/02 10:16:51;;;;;;;31.23;12.87;;;3.80;99.90;;;;;;5036080;28;20208;-51
2022/12/02 10:19:19;;;;;;;37.90;14.20;;;3.90;99.90;;;;;;5041076;28;20208;-54
2022/12/02 10:21:46;;;;;;;34.53;13.30;;;4.00;99.90;;;;;;5040355;28;20629;-52
2022/12/02 10:24:13;;;;;;;30.57;13.20;;;4.10;99.90;;;;;;5041296;28;20730;-53
2022/12/02 10:26:46;;;;;;;35.10;14.00;;;4.10;99.90;;;;;;5040562;28;20307;-52
2022/12/02 10:29:24;;;;;;;30.57;13.07;;;4.10;99.90;;;;;;5041181;28;20287;-53
2022/12/02 10:31:56;;;;;;;33.03;14.13;;;4.00;99.90;;;;;;5039785;28;20203;-52
2022/12/02 10:34:23;;;;;;;33.90;13.60;;;4.10;99.90;;;;;;5040627;28;20200;-52
2022/12/02 10:36:51;;;;;;;31.50;13.33;;;4.30;99.90;;;;;;5040951;28;20200;-52
2022/12/02 10:39:21;;;;;;;30.87;14.33;;;4.20;99.90;;;;;;5040557;28;20214;-57
2022/12/02 10:42:06;;;;;;;25.73;13.27;;;4.20;99.90;;;;;;5041248;28;20541;-53
2022/12/02 10:44:38;;;;;;;29.17;12.17;;;4.20;99.90;;;;;;5039051;28;20228;-52
2022/12/02 10:47:23;;;;;;;34.70;13.87;;;4.20;99.90;;;;;;5023970;28;20308;-53
2022/12/02 10:49:52;;;;;;;36.13;13.90;;;4.30;99.90;;;;;;5039593;28;20214;-53
2022/12/02 10:52:33;;;;;;;37.33;16.07;;;4.40;99.90;;;;;;5040470;28;20205;-52
2022/12/02 10:55:03;;;;;;;30.47;14.07;;;4.50;99.90;;;;;;5040604;28;20716;-53
2022/12/02 10:57:32;;;;;;;35.27;15.07;;;4.40;99.90;;;;;;5040902;28;20580;-52
2022/12/02 11:00:04;;;;;;;29.77;12.40;;;4.40;99.90;;;;;;5040715;28;20298;-52
2022/12/02 11:02:37;;;;;;;31.03;13.13;;;4.40;99.90;;;;;;5038027;28;20234;-52
2022/12/02 11:05:19;;;;;;;30.87;13.97;;;4.40;99.90;;;;;;5039955;28;20217;-56
2022/12/02 11:08:14;;;;;;;30.07;13.00;;;4.40;99.90;;;;;;5040350;28;20211;-55
2022/12/02 11:10:47;;;;;;;32.70;12.67;;;4.40;99.90;;;;;;5039704;28;20232;-52
2022/12/02 11:13:17;;;;;;;28.73;12.40;;;4.30;99.90;;;;;;5039926;28;20293;-51
2022/12/02 11:15:49;;;;;;;29.93;13.53;;;4.40;99.90;;;;;;5039169;28;20240;-51
2022/12/02 11:18:22;;;;;;;32.87;13.00;;;4.40;99.90;;;;;;5039181;28;20233;-54
2022/12/02 11:20:54;;;;;;;28.13;12.33;;;4.40;99.90;;;;;;5038606;28;20211;-53
2022/12/02 11:23:26;;;;;;;32.90;13.80;;;4.40;99.90;;;;;;5038870;28;20546;-51
2022/12/02 11:25:55;;;;;;;28.53;11.03;;;4.40;99.90;;;;;;5035786;28;20311;-53
2022/12/02 11:28:27;;;;;;;22.93;10.27;;;4.40;99.90;;;;;;5039408;28;21233;-51
2022/12/02 11:31:10;;;;;;;35.20;13.00;;;4.30;99.90;;;;;;5038766;28;20206;-53
2022/12/02 11:33:42;;;;;;;32.73;12.90;;;4.30;99.90;;;;;;5040046;28;20219;-51
2022/12/02 11:36:16;;;;;;;30.67;14.40;;;4.40;99.90;;;;;;5038996;28;20572;-52
2022/12/02 11:39:07;;;;;;;30.53;13.73;;;4.50;99.90;;;;;;5040190;28;20214;-52
2022/12/02 11:41:49;;;;;;;31.87;13.73;;;4.40;99.90;;;;;;5038073;28;20209;-50
2022/12/02 11:44:34;;;;;;;28.30;13.07;;;4.40;99.90;;;;;;5039024;28;20623;-52
2022/12/02 11:47:03;;;;;;;34.67;14.30;;;4.50;99.90;;;;;;5038555;28;20292;-52
2022/12/02 11:49:36;;;;;;;35.93;14.60;;;4.50;99.90;;;;;;5037625;28;20805;-52
2022/12/02 11:52:12;;;;;;;35.07;13.87;;;4.60;99.90;;;;;;5040239;28;20638;-56
2022/12/02 11:55:05;;;;;;;30.70;13.77;;;4.40;99.90;;;;;;5039956;28;20625;-52
2022/12/02 11:57:50;;;;;;;35.73;14.87;;;4.40;99.90;;;;;;5033737;28;20897;-50
2022/12/02 12:00:20;;;;;;;26.97;13.87;;;4.50;99.90;;;;;;5039598;28;20209;-53
2022/12/02 12:03:02;;;;;;;31.63;14.90;;;4.50;99.90;;;;;;5039375;28;20761;-51
2022/12/02 12:05:29;;;;;;;25.60;12.17;;;4.50;99.90;;;;;;5038051;28;20217;-52
2022/12/02 12:07:56;;;;;;;28.23;12.03;;;4.50;99.90;;;;;;5041315;28;20597;-51
2022/12/02 12:10:32;;;;;;;27.50;12.50;;;4.40;99.90;;;;;;5037844;28;20286;-53
2022/12/02 12:13:10;;;;;;;25.07;12.10;;;4.30;99.90;;;;;;5040510;28;20241;-51
2022/12/02 12:15:58;;;;;;;25.33;11.33;;;4.30;99.90;;;;;;5039434;28;20651;-53
2022/12/02 12:18:34;;;;;;;28.67;13.17;;;4.40;99.90;;;;;;5038864;28;20258;-52
2022/12/02 12:21:01;;;;;;;31.17;13.33;;;4.40;99.90;;;;;;5038594;28;20210;-53
2022/12/02 12:23:31;;;;;;;34.13;13.30;;;4.30;99.90;;;;;;5038972;28;20199;-52
2022/12/02 12:25:58;;;;;;;31.50;13.03;;;4.30;99.90;;;;;;5039274;28;20204;-52
2022/12/02 12:28:34;;;;;;;33.83;14.60;;;4.30;99.90;;;;;;5038174;28;20270;-53
2022/12/02 12:31:03;;;;;;;34.37;14.57;;;4.20;99.90;;;;;;5037882;28;20207;-53
2022/12/02 12:33:30;;;;;;;28.83;13.23;;;4.20;99.90;;;;;;5037876;28;20203;-51
2022/12/02 12:35:58;;;;;;;42.50;13.87;;;4.30;99.90;;;;;;5034148;28;20317;-53
2022/12/02 12:38:28;;;;;;;31.83;12.97;;;4.20;99.90;;;;;;5038495;28;20519;-51
2022/12/02 12:40:57;;;;;;;27.87;12.87;;;4.10;99.90;;;;;;5038527;28;20594;-51
2022/12/02 12:43:24;;;;;;;37.30;12.80;;;4.10;99.90;;;;;;5037056;28;20202;-53
2022/12/02 12:45:51;;;;;;;35.50;12.70;;;4.10;99.90;;;;;;5035345;28;20222;-51
2022/12/02 12:48:18;;;;;;;31.50;11.50;;;4.10;99.90;;;;;;5037514;28;20233;-52
2022/12/02 12:50:45;;;;;;;30.67;12.37;;;4.10;99.90;;;;;;5033512;28;20236;-52
2022/12/02 12:53:11;;;;;;;28.73;11.00;;;4.10;99.90;;;;;;5037302;28;20701;-53
2022/12/02 12:55:38;;;;;;;28.83;11.57;;;4.20;99.90;;;;;;5036082;28;20816;-52
2022/12/02 12:58:05;;;;;;;26.60;12.13;;;4.40;99.90;;;;;;5037398;28;20639;-51